Time;durP1;ratioP1;P1;durP2;ratioP2;P2;SDS_P1;SDS_P2;PMS_P1;PMS_P2;Temp;Humidity;BMP_temperature;BMP_pressure;BME280_temperature;BME280_humidity;BME280_pressure;Samples;Min_cycle;Max_cycle;Signal;HPM_P1;HPM_P2
2022/08/10 04:00:33;;;;;;;7.63;7.03;;;15.40;99.90;;;;;;5810435;23;20528;-68
2022/08/10 04:03:03;;;;;;;7.20;6.70;;;15.30;99.90;;;;;;4893619;29;20528;-67
2022/08/10 04:05:30;;;;;;;9.20;7.50;;;15.40;99.90;;;;;;4893288;29;20479;-68
2022/08/10 04:07:57;;;;;;;8.20;7.10;;;15.40;99.90;;;;;;4895964;29;20848;-67
2022/08/10 04:10:24;;;;;;;8.63;7.90;;;15.30;99.90;;;;;;4891300;29;20958;-67
2022/08/10 04:12:50;;;;;;;7.53;6.90;;;15.40;99.90;;;;;;4894787;29;20540;-67
2022/08/10 04:15:17;;;;;;;7.70;7.10;;;15.40;99.90;;;;;;4907368;23;20477;31
2022/08/10 04:17:45;;;;;;;6.67;6.20;;;15.40;99.90;;;;;;4869880;29;20583;-70
2022/08/10 04:20:19;;;;;;;8.03;7.33;;;15.40;99.90;;;;;;4875747;29;20533;-70
2022/08/10 04:22:49;;;;;;;8.77;8.17;;;15.40;99.90;;;;;;4877877;29;20525;-70
2022/08/10 04:25:17;;;;;;;8.50;7.80;;;15.40;99.90;;;;;;4877526;29;20531;-70
2022/08/10 04:27:44;;;;;;;9.60;6.60;;;15.40;99.90;;;;;;4895686;29;20471;-71
2022/08/10 04:30:12;;;;;;;7.53;7.03;;;15.40;99.90;;;;;;4890200;29;20967;-71
2022/08/10 04:32:40;;;;;;;7.27;6.47;;;15.40;99.90;;;;;;4895584;29;20588;-70
2022/08/10 04:35:10;;;;;;;7.90;7.23;;;15.40;99.90;;;;;;4894610;29;20881;-71
2022/08/10 04:37:39;;;;;;;7.20;6.70;;;15.50;99.90;;;;;;4896181;29;20462;-70
2022/08/10 04:40:07;;;;;;;8.20;7.50;;;15.50;99.90;;;;;;4893844;29;20521;-70
2022/08/10 04:42:34;;;;;;;7.37;6.77;;;15.50;99.90;;;;;;4896271;29;20777;-71
2022/08/10 04:45:07;;;;;;;7.47;6.77;;;15.60;99.90;;;;;;4893983;29;20590;-69
2022/08/10 04:47:33;;;;;;;6.97;6.57;;;15.80;99.90;;;;;;4896821;29;20485;-69
2022/08/10 04:50:00;;;;;;;7.00;6.40;;;16.10;99.90;;;;;;4894957;29;20478;-69
2022/08/10 04:52:28;;;;;;;7.10;6.50;;;16.30;99.90;;;;;;4895460;29;20553;-70
2022/08/10 04:54:55;;;;;;;5.90;5.40;;;16.60;99.90;;;;;;4894491;29;20473;-69
2022/08/10 04:57:21;;;;;;;6.20;5.90;;;16.90;99.90;;;;;;4892985;29;20494;-69
2022/08/10 04:59:48;;;;;;;5.70;5.30;;;17.00;99.90;;;;;;4894128;29;20903;-70
2022/08/10 05:02:15;;;;;;;6.33;5.87;;;17.20;99.90;;;;;;4895868;29;20932;-70
2022/08/10 05:04:42;;;;;;;5.47;5.17;;;17.30;99.90;;;;;;4894406;29;20972;-70
2022/08/10 05:07:10;;;;;;;6.40;6.00;;;17.30;99.90;;;;;;4891464;29;20502;-70
2022/08/10 05:09:39;;;;;;;5.27;4.97;;;17.30;99.90;;;;;;4889894;29;20469;-69
2022/08/10 05:12:07;;;;;;;5.83;5.43;;;17.30;99.90;;;;;;4893279;29;20481;-69
2022/08/10 05:14:34;;;;;;;5.67;5.37;;;17.20;99.90;;;;;;4893414;29;20471;-70
2022/08/10 05:17:01;;;;;;;6.17;5.73;;;17.20;99.90;;;;;;4894227;29;20506;-71
2022/08/10 05:19:27;;;;;;;5.80;5.50;;;17.10;99.90;;;;;;4889790;29;20470;-71
2022/08/10 05:21:54;;;;;;;6.20;5.80;;;17.10;99.90;;;;;;4893835;29;20559;-71
2022/08/10 05:24:21;;;;;;;6.17;5.67;;;17.10;99.90;;;;;;4893207;29;20494;-70
2022/08/10 05:26:49;;;;;;;5.60;5.33;;;17.00;99.90;;;;;;4894453;29;20851;-70
2022/08/10 05:29:15;;;;;;;6.80;6.00;;;16.90;99.90;;;;;;4894579;29;20485;-70
2022/08/10 05:31:42;;;;;;;6.77;6.33;;;16.90;99.90;;;;;;4893739;29;20481;-70
2022/08/10 05:34:10;;;;;;;7.87;6.40;;;16.80;99.90;;;;;;4893630;29;20522;-71
2022/08/10 05:36:37;;;;;;;5.87;5.53;;;16.80;99.90;;;;;;4891745;29;20497;-71
2022/08/10 05:39:04;;;;;;;7.20;5.70;;;16.80;99.90;;;;;;4892866;29;20864;-70
2022/08/10 05:41:32;;;;;;;7.80;6.50;;;16.80;99.90;;;;;;4894791;29;20470;-69
2022/08/10 05:44:00;;;;;;;6.80;6.20;;;16.80;99.90;;;;;;4885810;29;20489;-69
2022/08/10 05:46:27;;;;;;;7.10;5.40;;;16.80;99.90;;;;;;4895456;29;21188;-71
2022/08/10 05:48:54;;;;;;;6.77;6.20;;;16.90;99.90;;;;;;4892194;29;20478;-71
2022/08/10 05:51:21;;;;;;;5.53;5.13;;;16.90;99.90;;;;;;4892268;29;20598;-71
2022/08/10 05:53:49;;;;;;;6.60;6.20;;;16.90;99.90;;;;;;4893572;29;20522;-70
2022/08/10 05:56:16;;;;;;;6.60;6.00;;;16.90;99.90;;;;;;4894258;29;20556;-71
2022/08/10 05:58:42;;;;;;;6.50;6.00;;;16.80;99.90;;;;;;4892900;29;20477;-72
2022/08/10 06:01:14;;;;;;;6.90;6.33;;;16.80;99.90;;;;;;4893465;29;20478;-71
2022/08/10 06:03:47;;;;;;;6.37;5.70;;;16.90;99.90;;;;;;4888639;29;20591;-71
2022/08/10 06:06:17;;;;;;;6.33;5.80;;;16.90;99.90;;;;;;4891584;29;20493;-71
2022/08/10 06:08:47;;;;;;;5.60;5.17;;;17.00;99.90;;;;;;4891735;29;20532;-71
2022/08/10 06:11:16;;;;;;;4.33;4.03;;;17.40;99.90;;;;;;4892717;29;20503;-71
2022/08/10 06:16:33;;;;;;;4.20;4.00;;;19.00;99.90;;;;;;4894652;29;20575;-72
2022/08/10 06:19:00;;;;;;;3.93;3.63;;;20.00;99.90;;;;;;4886487;29;20495;-71
2022/08/10 06:21:27;;;;;;;3.83;3.53;;;20.70;99.90;;;;;;4877591;29;20477;-69
2022/08/10 06:23:55;;;;;;;3.50;3.30;;;21.40;99.90;;;;;;4883089;29;20468;-70
2022/08/10 06:26:22;;;;;;;3.40;3.20;;;21.80;99.90;;;;;;4895862;29;20908;-70
2022/08/10 06:28:53;;;;;;;3.57;3.47;;;22.50;99.90;;;;;;4893663;29;20476;-70
2022/08/10 06:31:21;;;;;;;3.20;3.10;;;23.10;99.90;;;;;;4894672;29;20478;-71
2022/08/10 06:33:51;;;;;;;3.43;3.30;;;23.70;99.90;;;;;;4893541;29;20481;-68
2022/08/10 06:36:20;;;;;;;2.73;2.53;;;24.50;99.90;;;;;;4893148;29;20558;-70
2022/08/10 06:38:49;;;;;;;2.83;2.80;;;24.80;99.90;;;;;;4894419;29;20475;-70
2022/08/10 06:41:23;;;;;;;3.17;2.93;;;25.00;99.90;;;;;;4895868;29;20464;-70
2022/08/10 06:43:55;;;;;;;3.10;3.00;;;25.60;99.90;;;;;;4894676;29;20480;-68
2022/08/10 06:46:23;;;;;;;3.13;3.00;;;26.00;99.90;;;;;;4894775;29;21370;-70
2022/08/10 06:48:55;;;;;;;2.70;2.70;;;26.70;99.90;;;;;;4893875;29;20487;-69
2022/08/10 06:51:23;;;;;;;2.67;2.57;;;26.80;99.90;;;;;;4896292;29;20493;-70
2022/08/10 06:53:54;;;;;;;2.87;2.67;;;26.70;99.90;;;;;;4895376;29;20800;-70
2022/08/10 06:56:24;;;;;;;2.90;2.80;;;27.10;99.90;;;;;;4903366;29;20529;-70
2022/08/10 06:58:54;;;;;;;2.43;2.20;;;27.60;99.90;;;;;;4895153;29;20493;-70
2022/08/10 07:01:25;;;;;;;3.17;2.90;;;27.90;99.90;;;;;;4898256;29;20498;-70
2022/08/10 07:04:00;;;;;;;2.17;2.17;;;28.20;99.90;;;;;;4892134;29;20546;-70
2022/08/10 07:06:28;;;;;;;3.73;2.60;;;28.50;99.90;;;;;;4893554;29;20890;-69
2022/08/10 07:08:56;;;;;;;3.07;2.40;;;28.60;99.90;;;;;;4895844;29;20529;-70
2022/08/10 07:11:24;;;;;;;3.00;2.90;;;28.90;99.90;;;;;;4896076;29;20543;-70
2022/08/10 07:13:53;;;;;;;2.70;2.50;;;28.80;99.90;;;;;;4896339;29;20538;-68
2022/08/10 07:16:21;;;;;;;2.63;2.50;;;28.50;99.90;;;;;;4896187;29;20585;-69
2022/08/10 07:18:48;;;;;;;4.93;2.00;;;28.40;99.90;;;;;;4897967;29;20474;-69
2022/08/10 07:21:18;;;;;;;2.70;2.60;;;28.60;99.90;;;;;;4897551;29;20526;-69
2022/08/10 07:23:47;;;;;;;2.20;2.20;;;28.70;99.90;;;;;;4893660;29;20556;-69
2022/08/10 07:26:15;;;;;;;2.50;2.30;;;28.60;99.90;;;;;;4897440;29;20490;-69
2022/08/10 07:28:42;;;;;;;2.33;2.20;;;28.50;99.90;;;;;;4895906;29;20478;-70
2022/08/10 07:31:09;;;;;;;3.03;1.83;;;28.50;99.90;;;;;;4889470;29;20482;-70
2022/08/10 07:33:38;;;;;;;2.83;2.67;;;28.60;99.90;;;;;;4895747;29;20475;-70
2022/08/10 07:36:06;;;;;;;2.57;2.57;;;28.60;99.00;;;;;;4894442;29;20489;-69
2022/08/10 07:38:37;;;;;;;2.90;2.70;;;28.00;99.10;;;;;;4893386;29;20482;-70
2022/08/10 07:41:05;;;;;;;2.63;2.43;;;27.20;99.90;;;;;;4892537;29;20500;-70
2022/08/10 07:43:36;;;;;;;3.57;2.60;;;26.50;99.90;;;;;;4896530;29;20475;-70
2022/08/10 07:46:05;;;;;;;3.00;2.90;;;25.60;99.90;;;;;;4894440;29;20512;-70
2022/08/10 07:48:36;;;;;;;3.10;3.00;;;25.20;99.90;;;;;;4896705;29;20532;-70
2022/08/10 07:51:03;;;;;;;3.00;2.90;;;25.10;99.90;;;;;;4894504;29;20955;-70
2022/08/10 07:53:33;;;;;;;3.43;3.00;;;24.90;99.90;;;;;;4894887;29;20475;-70
2022/08/10 07:56:04;;;;;;;2.73;2.73;;;24.70;99.90;;;;;;4892126;29;20483;-72
2022/08/10 07:58:35;;;;;;;4.07;3.73;;;24.70;99.90;;;;;;4896478;29;20983;-70
2022/08/10 08:01:02;;;;;;;5.50;3.37;;;24.60;99.90;;;;;;4894875;29;21027;-70
2022/08/10 08:03:31;;;;;;;3.50;3.20;;;24.50;99.90;;;;;;4897171;29;20474;-70
2022/08/10 08:06:00;;;;;;;2.60;2.50;;;24.40;99.90;;;;;;4896865;29;20498;-69
2022/08/10 08:08:28;;;;;;;2.77;2.67;;;24.30;99.90;;;;;;4896732;29;20505;-70
2022/08/10 08:10:56;;;;;;;2.70;2.47;;;24.20;99.90;;;;;;4890203;29;20477;-69
2022/08/10 08:13:26;;;;;;;3.80;3.50;;;24.00;99.90;;;;;;4896694;29;20521;-70
2022/08/10 08:15:56;;;;;;;4.87;2.97;;;23.90;99.90;;;;;;4897334;29;20500;-70
2022/08/10 08:18:24;;;;;;;2.90;2.70;;;23.90;99.90;;;;;;4896794;29;20849;-70
2022/08/10 08:20:51;;;;;;;2.70;2.60;;;23.90;99.90;;;;;;4896296;29;20481;-71
2022/08/10 08:23:18;;;;;;;3.17;3.00;;;23.80;99.90;;;;;;4895822;29;20577;-69
2022/08/10 08:25:46;;;;;;;3.17;3.07;;;23.80;99.90;;;;;;4896768;29;20501;-75
2022/08/10 08:28:14;;;;;;;2.70;2.60;;;23.70;99.90;;;;;;4895697;29;20478;-70
2022/08/10 08:30:42;;;;;;;3.13;2.77;;;23.60;99.90;;;;;;4880861;29;20485;-69
2022/08/10 08:33:11;;;;;;;2.73;2.73;;;23.60;99.90;;;;;;4896039;29;20845;-69
2022/08/10 08:35:38;;;;;;;3.47;3.33;;;23.60;99.90;;;;;;4897067;29;20481;-70
2022/08/10 08:38:06;;;;;;;3.20;3.10;;;23.50;99.90;;;;;;4895442;29;20474;-69
2022/08/10 08:40:35;;;;;;;3.60;2.60;;;23.60;99.90;;;;;;4896029;29;20529;-69
2022/08/10 08:43:21;;;;;;;2.40;2.40;;;23.60;99.90;;;;;;4890742;29;20473;-69
2022/08/10 08:46:27;;;;;;;2.93;2.73;;;23.60;99.90;;;;;;4896795;29;20965;-70
2022/08/10 08:49:08;;;;;;;3.00;2.70;;;23.60;99.90;;;;;;4869125;29;20477;-71
2022/08/10 08:51:43;;;;;;;3.57;2.50;;;23.60;99.90;;;;;;4894671;29;20537;-68
2022/08/10 08:54:21;;;;;;;2.80;2.67;;;23.50;99.90;;;;;;4896325;29;20469;-69
2022/08/10 08:57:02;;;;;;;2.80;2.70;;;23.60;99.90;;;;;;4880639;29;20492;-69
2022/08/10 08:59:45;;;;;;;2.90;2.80;;;23.60;99.90;;;;;;4892653;29;20905;-70
2022/08/10 09:02:26;;;;;;;3.20;3.10;;;23.60;99.90;;;;;;4889219;29;20581;-69
2022/08/10 09:05:04;;;;;;;2.73;2.63;;;23.60;99.90;;;;;;4893701;29;20496;-69
2022/08/10 09:08:08;;;;;;;2.80;2.60;;;23.70;99.90;;;;;;4894513;29;20645;-69
2022/08/10 09:10:45;;;;;;;2.40;2.20;;;23.80;99.90;;;;;;4895687;29;20476;-69
2022/08/10 09:13:25;;;;;;;2.50;2.30;;;23.80;99.90;;;;;;4891699;29;20477;-69
2022/08/10 09:16:03;;;;;;;4.33;2.30;;;23.80;99.90;;;;;;4889242;29;20495;-70
2022/08/10 09:18:39;;;;;;;3.10;2.97;;;23.80;99.90;;;;;;4894721;29;20529;-69
2022/08/10 09:21:13;;;;;;;2.80;2.60;;;23.90;99.90;;;;;;4890353;29;20545;-71
2022/08/10 09:23:45;;;;;;;2.43;2.27;;;23.90;99.90;;;;;;4895884;29;20470;-70
2022/08/10 09:26:18;;;;;;;2.47;2.37;;;23.80;99.90;;;;;;4897711;29;20497;-71
2022/08/10 09:28:45;;;;;;;2.23;2.23;;;23.80;99.90;;;;;;4895728;29;20530;-71
2022/08/10 09:31:13;;;;;;;3.17;2.87;;;23.90;99.90;;;;;;4890477;29;20482;-70
2022/08/10 09:33:52;;;;;;;2.33;2.23;;;23.90;99.90;;;;;;4895535;29;20485;-71
2022/08/10 09:36:28;;;;;;;2.70;2.60;;;23.90;99.90;;;;;;4895861;29;20498;-71
2022/08/10 09:39:05;;;;;;;4.20;2.63;;;23.90;99.90;;;;;;4895122;29;20955;-70
2022/08/10 09:41:39;;;;;;;1.93;1.93;;;23.90;99.90;;;;;;4895016;29;20693;-71
2022/08/10 09:44:13;;;;;;;2.70;2.60;;;24.10;99.90;;;;;;4895130;29;20558;-70
2022/08/10 09:46:50;;;;;;;3.07;2.47;;;24.10;99.90;;;;;;4888806;29;20513;-70
2022/08/10 09:49:28;;;;;;;2.13;2.13;;;24.00;99.90;;;;;;4895159;29;20474;-69
2022/08/10 09:52:01;;;;;;;2.87;2.67;;;24.00;99.90;;;;;;4896144;29;20466;-70
2022/08/10 09:54:39;;;;;;;2.37;2.27;;;24.00;99.90;;;;;;4895026;29;20471;-69
2022/08/10 09:57:16;;;;;;;2.10;2.00;;;24.10;99.90;;;;;;4895018;29;20554;-71
2022/08/10 09:59:56;;;;;;;2.27;2.27;;;24.10;99.90;;;;;;4890347;29;20475;-70
2022/08/10 10:02:32;;;;;;;2.87;2.77;;;24.20;99.90;;;;;;4889182;29;20561;-69
2022/08/10 10:05:08;;;;;;;2.03;2.03;;;24.20;99.90;;;;;;4891411;29;20479;-70
2022/08/10 10:07:43;;;;;;;2.10;2.10;;;24.30;99.90;;;;;;4893389;29;20863;-72
2022/08/10 10:10:14;;;;;;;2.27;2.27;;;24.30;99.90;;;;;;4885672;29;20863;-70
2022/08/10 10:12:52;;;;;;;2.37;2.27;;;24.30;99.90;;;;;;4891463;29;20486;-70
2022/08/10 10:15:30;;;;;;;2.60;2.50;;;24.30;99.90;;;;;;4889431;29;20502;-70
2022/08/10 10:18:07;;;;;;;2.67;2.47;;;24.40;99.90;;;;;;4907429;23;20518;-70
2022/08/10 10:20:41;;;;;;;2.53;2.33;;;24.50;99.90;;;;;;4894629;29;20485;-70
2022/08/10 10:23:16;;;;;;;2.30;2.20;;;24.50;99.90;;;;;;4893259;29;20847;-70
2022/08/10 10:25:47;;;;;;;2.03;2.00;;;24.50;99.90;;;;;;4887390;29;20488;-70
2022/08/10 10:28:28;;;;;;;2.17;2.07;;;24.50;99.90;;;;;;4897700;29;20866;-70
2022/08/10 10:31:04;;;;;;;2.70;2.57;;;24.60;99.90;;;;;;4894283;29;20976;-70
2022/08/10 10:33:44;;;;;;;2.07;1.97;;;24.70;99.90;;;;;;4899050;29;20466;-70
2022/08/10 10:36:14;;;;;;;3.80;2.40;;;24.70;99.90;;;;;;4896355;29;20486;-70
2022/08/10 10:38:42;;;;;;;2.23;2.17;;;24.80;99.90;;;;;;4897979;29;20625;-70
2022/08/10 10:41:16;;;;;;;2.10;2.00;;;24.90;99.90;;;;;;4894488;29;20972;-70
2022/08/10 10:43:53;;;;;;;2.03;2.00;;;24.80;99.90;;;;;;4893494;29;20557;-70
2022/08/10 10:46:34;;;;;;;2.20;2.17;;;24.80;99.90;;;;;;4892435;29;20506;-72
2022/08/10 10:49:11;;;;;;;1.93;1.83;;;24.80;99.90;;;;;;4894365;29;20541;-72
2022/08/10 10:51:44;;;;;;;2.40;2.40;;;24.80;99.90;;;;;;4896452;29;20593;-72
2022/08/10 10:54:21;;;;;;;2.30;2.10;;;24.90;99.90;;;;;;4899009;29;20828;-71
2022/08/10 10:56:58;;;;;;;2.10;2.00;;;24.90;99.90;;;;;;4897353;29;20543;-73
2022/08/10 10:59:32;;;;;;;2.00;1.90;;;24.90;99.90;;;;;;4897536;29;20458;-71
2022/08/10 11:02:13;;;;;;;2.33;2.23;;;24.90;99.90;;;;;;4892558;29;20623;-71
2022/08/10 11:04:45;;;;;;;2.10;2.10;;;24.90;99.90;;;;;;4891744;29;20550;-71
2022/08/10 11:07:19;;;;;;;2.20;2.10;;;25.00;99.90;;;;;;4895284;29;20528;-72
2022/08/10 11:09:55;;;;;;;3.13;2.60;;;25.00;99.90;;;;;;4894706;29;20846;-71
2022/08/10 11:12:29;;;;;;;2.27;2.27;;;25.10;99.90;;;;;;4896468;29;20478;-72
2022/08/10 11:15:04;;;;;;;2.17;2.17;;;25.10;99.90;;;;;;4899064;29;20848;-72
2022/08/10 11:17:34;;;;;;;2.20;2.10;;;25.20;99.90;;;;;;4895869;29;20522;-71
2022/08/10 11:20:11;;;;;;;1.80;1.70;;;25.20;99.50;;;;;;4898802;29;20822;-71
2022/08/10 11:22:49;;;;;;;2.13;2.10;;;25.20;99.10;;;;;;4895114;29;21179;-70
2022/08/10 11:25:22;;;;;;;1.80;1.80;;;25.30;99.00;;;;;;4894155;29;20463;-71
2022/08/10 11:27:54;;;;;;;2.20;1.60;;;25.30;99.20;;;;;;4896724;29;20902;-71
2022/08/10 11:30:27;;;;;;;2.20;2.10;;;25.40;98.50;;;;;;4893520;29;20483;-71
2022/08/10 11:33:06;;;;;;;1.90;1.90;;;25.50;98.50;;;;;;4893713;29;20478;-71
2022/08/10 11:35:40;;;;;;;2.03;2.03;;;25.40;98.00;;;;;;4896083;29;20481;-72
2022/08/10 11:38:14;;;;;;;1.97;1.87;;;25.40;97.60;;;;;;4896785;29;20494;-71
2022/08/10 11:40:49;;;;;;;3.50;1.80;;;25.30;97.60;;;;;;4896029;29;20508;-71
2022/08/10 11:43:20;;;;;;;3.27;2.07;;;25.30;97.60;;;;;;4897170;29;20479;-71
2022/08/10 11:45:52;;;;;;;1.60;1.60;;;25.30;96.90;;;;;;4895928;29;20548;-71
2022/08/10 11:48:27;;;;;;;1.70;1.70;;;25.30;96.50;;;;;;4896723;29;20505;-71
2022/08/10 11:50:59;;;;;;;2.50;2.30;;;25.30;97.20;;;;;;4896028;29;20478;-71
2022/08/10 11:53:33;;;;;;;2.50;2.30;;;25.30;97.20;;;;;;4895073;29;20472;-71
2022/08/10 11:56:01;;;;;;;2.10;2.00;;;25.40;97.40;;;;;;4891931;29;20523;-71
2022/08/10 12:01:24;;;;;;;1.77;1.77;;;25.50;97.90;;;;;;4893739;29;20559;-70
2022/08/10 12:03:52;;;;;;;1.70;1.70;;;25.50;97.20;;;;;;4896587;29;22160;-71
2022/08/10 12:06:22;;;;;;;1.80;1.80;;;25.50;97.20;;;;;;4891611;29;20543;-72
2022/08/10 12:08:51;;;;;;;1.90;1.90;;;25.50;96.80;;;;;;4892617;29;20528;-70
2022/08/10 12:11:23;;;;;;;1.90;1.90;;;25.50;96.70;;;;;;4893300;29;20480;-70
2022/08/10 12:13:54;;;;;;;3.03;2.57;;;25.50;97.40;;;;;;4895975;29;20975;-71
2022/08/10 12:16:25;;;;;;;2.67;1.70;;;25.50;97.00;;;;;;4896602;29;20472;-71
2022/08/10 12:18:56;;;;;;;2.40;2.40;;;25.50;96.40;;;;;;4896728;29;20468;-71
2022/08/10 12:21:27;;;;;;;1.73;1.73;;;25.50;96.40;;;;;;4896193;29;20955;-71
2022/08/10 12:23:59;;;;;;;2.47;2.00;;;25.50;96.40;;;;;;4897587;29;20467;-71
2022/08/10 12:26:32;;;;;;;2.27;2.17;;;25.60;96.40;;;;;;4896961;29;20504;-71
2022/08/10 12:29:08;;;;;;;2.03;1.93;;;25.70;96.70;;;;;;4898268;29;20475;-71
2022/08/10 12:31:40;;;;;;;2.63;2.03;;;25.70;96.00;;;;;;4894830;29;20516;-72
2022/08/10 12:34:18;;;;;;;1.67;1.67;;;25.70;96.30;;;;;;4895573;29;20909;-72
2022/08/10 12:36:53;;;;;;;2.07;1.80;;;25.80;96.30;;;;;;4894493;29;20543;-72
2022/08/10 12:39:26;;;;;;;1.70;1.70;;;25.80;95.90;;;;;;4896035;29;20475;-72
2022/08/10 12:42:00;;;;;;;3.30;2.10;;;25.90;96.60;;;;;;4897293;29;20619;-72
2022/08/10 12:44:33;;;;;;;1.40;1.40;;;25.90;95.90;;;;;;4897804;29;20475;-72
2022/08/10 12:47:09;;;;;;;1.67;1.67;;;25.90;95.70;;;;;;4896378;29;20496;-72
2022/08/10 12:49:49;;;;;;;1.67;1.67;;;25.90;95.70;;;;;;4896703;29;20472;-71
2022/08/10 12:52:20;;;;;;;1.60;1.50;;;25.80;95.20;;;;;;4896628;29;20494;-71
2022/08/10 12:54:51;;;;;;;1.80;1.80;;;25.90;95.60;;;;;;4897845;29;20475;-72
2022/08/10 12:57:22;;;;;;;2.37;1.60;;;25.90;95.60;;;;;;4896790;29;20547;-71
2022/08/10 12:59:52;;;;;;;1.63;1.63;;;26.00;95.50;;;;;;4894369;29;20498;-71
2022/08/10 13:02:22;;;;;;;2.00;2.00;;;26.10;95.40;;;;;;4894658;29;20471;-71
2022/08/10 13:04:51;;;;;;;2.47;2.10;;;26.10;94.90;;;;;;4896712;29;20845;-71
2022/08/10 13:07:25;;;;;;;1.93;1.93;;;26.10;95.20;;;;;;4895670;29;20551;-71
2022/08/10 13:09:53;;;;;;;1.40;1.40;;;26.10;94.50;;;;;;4897111;29;20471;-71
2022/08/10 13:12:22;;;;;;;1.90;1.60;;;26.00;94.40;;;;;;4896935;29;20498;-71
2022/08/10 13:14:54;;;;;;;1.83;1.80;;;26.00;94.90;;;;;;4897447;29;20483;-70
2022/08/10 13:17:25;;;;;;;1.80;1.80;;;26.00;94.80;;;;;;4894117;29;20500;-71
2022/08/10 13:19:54;;;;;;;1.57;1.47;;;26.10;94.60;;;;;;4889299;29;20543;-71
2022/08/10 13:22:23;;;;;;;1.90;1.80;;;26.00;94.40;;;;;;4896609;29;20468;-71
2022/08/10 13:24:51;;;;;;;1.80;1.70;;;26.10;94.80;;;;;;4895201;29;20484;-71
2022/08/10 13:27:25;;;;;;;1.70;1.60;;;26.20;94.60;;;;;;4896337;29;20502;-71
2022/08/10 13:29:56;;;;;;;1.40;1.40;;;26.30;94.20;;;;;;4892871;29;20475;-71
2022/08/10 13:32:26;;;;;;;1.50;1.50;;;26.40;93.90;;;;;;4890816;29;20552;-71
2022/08/10 13:34:56;;;;;;;1.37;1.37;;;26.30;93.70;;;;;;4891173;29;20467;-71
2022/08/10 13:37:25;;;;;;;2.10;2.00;;;26.20;94.10;;;;;;4894442;29;20483;-71
2022/08/10 13:39:55;;;;;;;1.90;1.80;;;26.30;94.30;;;;;;4892134;29;20488;-71
2022/08/10 13:42:27;;;;;;;3.03;2.07;;;26.40;94.30;;;;;;4892994;29;20475;-71
2022/08/10 13:44:55;;;;;;;1.57;1.53;;;26.40;93.50;;;;;;4893954;29;20476;-71
2022/08/10 13:47:31;;;;;;;2.00;1.83;;;26.30;93.30;;;;;;4895990;29;20519;-71
2022/08/10 13:50:02;;;;;;;1.60;1.60;;;26.30;94.10;;;;;;4893347;29;21031;-70
2022/08/10 13:52:29;;;;;;;1.40;1.40;;;26.40;94.30;;;;;;4892558;29;20548;-71
2022/08/10 13:54:59;;;;;;;1.87;1.87;;;26.40;93.40;;;;;;4887545;29;20502;-72
2022/08/10 13:57:29;;;;;;;1.50;1.50;;;26.40;93.40;;;;;;4889263;29;20495;-71
2022/08/10 13:59:57;;;;;;;1.57;1.57;;;26.30;93.50;;;;;;4893029;29;20475;-72
2022/08/10 14:02:28;;;;;;;1.70;1.70;;;26.40;93.20;;;;;;4891071;29;20476;-72
2022/08/10 14:04:57;;;;;;;1.20;1.20;;;26.40;92.90;;;;;;4887048;29;20475;-72
2022/08/10 14:07:25;;;;;;;1.70;1.70;;;26.40;93.20;;;;;;4891543;29;20495;-72
2022/08/10 14:09:53;;;;;;;1.70;1.70;;;26.40;92.80;;;;;;4894718;29;20484;-71
2022/08/10 14:12:25;;;;;;;1.80;1.73;;;26.40;92.70;;;;;;4894511;29;20549;-71
2022/08/10 14:14:55;;;;;;;1.47;1.47;;;26.40;92.50;;;;;;4895496;29;20472;-71
2022/08/10 14:17:24;;;;;;;1.70;1.70;;;26.40;92.60;;;;;;4894421;29;20547;-71
2022/08/10 14:19:55;;;;;;;1.80;1.80;;;26.50;92.70;;;;;;4890751;29;20847;-71
2022/08/10 14:22:22;;;;;;;1.77;1.67;;;26.60;92.70;;;;;;4893080;29;20472;-71
2022/08/10 14:24:51;;;;;;;2.10;2.00;;;26.60;92.70;;;;;;4893796;29;20579;-71
2022/08/10 14:27:20;;;;;;;2.20;1.40;;;26.60;92.40;;;;;;4893108;29;20495;-71
2022/08/10 14:29:50;;;;;;;1.73;1.73;;;26.60;92.60;;;;;;4888000;29;20523;-71
2022/08/10 14:32:21;;;;;;;1.43;1.43;;;26.70;92.10;;;;;;4891503;29;20470;-72
2022/08/10 14:34:50;;;;;;;1.90;1.90;;;26.90;91.70;;;;;;4893747;29;20466;-71
2022/08/10 14:37:19;;;;;;;2.00;1.87;;;26.90;91.80;;;;;;4892775;29;20491;-71
2022/08/10 14:39:51;;;;;;;1.97;1.90;;;26.90;91.50;;;;;;4885938;29;20471;-72
2022/08/10 14:42:25;;;;;;;1.47;1.47;;;27.00;91.70;;;;;;4891654;29;20471;-71
2022/08/10 14:44:56;;;;;;;1.67;1.60;;;26.90;91.20;;;;;;4894483;29;20876;-71
2022/08/10 14:47:27;;;;;;;1.57;1.47;;;26.80;91.30;;;;;;4893222;29;20505;-72
2022/08/10 14:49:55;;;;;;;1.50;1.50;;;26.70;91.30;;;;;;4894418;29;20475;-71
2022/08/10 14:52:23;;;;;;;1.40;1.40;;;26.80;91.60;;;;;;4892217;29;20531;-71
2022/08/10 14:54:53;;;;;;;2.07;1.50;;;26.80;91.60;;;;;;4891780;29;20512;-71
2022/08/10 14:57:23;;;;;;;1.60;1.50;;;26.90;91.60;;;;;;4890515;29;20516;-71
2022/08/10 14:59:56;;;;;;;1.50;1.50;;;27.00;92.00;;;;;;4892948;29;20528;-73
2022/08/10 15:02:26;;;;;;;1.50;1.50;;;27.10;90.80;;;;;;4890330;29;21108;-71
2022/08/10 15:04:54;;;;;;;1.83;1.73;;;27.10;90.60;;;;;;4888827;29;20514;-71
2022/08/10 15:07:22;;;;;;;1.53;1.53;;;27.00;90.60;;;;;;4893299;29;20491;-71
2022/08/10 15:09:52;;;;;;;1.57;1.57;;;26.90;90.70;;;;;;4894754;29;20558;-71
2022/08/10 15:12:19;;;;;;;3.03;1.90;;;26.90;91.10;;;;;;4890989;29;20476;-71
2022/08/10 15:14:48;;;;;;;5.00;1.90;;;27.00;90.40;;;;;;4896530;29;21056;-72
2022/08/10 15:17:23;;;;;;;1.40;1.30;;;27.10;90.50;;;;;;4893040;29;20506;-72
2022/08/10 15:19:55;;;;;;;2.63;1.47;;;27.10;90.30;;;;;;4886989;29;20535;-71
2022/08/10 15:22:24;;;;;;;1.50;1.50;;;27.10;90.10;;;;;;4895033;29;20472;-71
2022/08/10 15:25:00;;;;;;;1.67;1.57;;;27.10;90.00;;;;;;4895442;29;20499;-71
2022/08/10 15:27:31;;;;;;;2.30;1.97;;;27.20;90.20;;;;;;4896625;29;20515;-71
2022/08/10 15:30:00;;;;;;;1.50;1.50;;;27.20;89.80;;;;;;4893156;29;20484;-70
2022/08/10 15:38:11;;;;;;;2.20;2.10;;;27.50;89.10;;;;;;4899242;29;20628;-72
2022/08/10 15:40:42;;;;;;;1.50;1.50;;;27.40;88.10;;;;;;4896998;29;20468;-72
2022/08/10 15:43:24;;;;;;;1.57;1.57;;;27.40;89.30;;;;;;4894432;29;20472;-72
2022/08/10 15:46:03;;;;;;;1.80;1.80;;;27.40;88.40;;;;;;4894807;29;20542;-71
2022/08/10 15:48:38;;;;;;;1.60;1.50;;;27.40;88.20;;;;;;4898075;29;20554;-71
2022/08/10 15:51:12;;;;;;;1.33;1.33;;;27.50;87.80;;;;;;4898652;29;20583;-71
2022/08/10 15:53:43;;;;;;;1.70;1.60;;;27.50;88.40;;;;;;4896421;29;20563;-71
2022/08/10 15:56:15;;;;;;;1.90;1.80;;;27.50;88.80;;;;;;4894171;29;20910;-71
2022/08/10 15:58:47;;;;;;;1.50;1.40;;;27.50;89.40;;;;;;4891245;29;20479;-72
2022/08/10 16:01:20;;;;;;;1.47;1.47;;;27.50;87.90;;;;;;4892119;29;20476;-71
2022/08/10 16:03:52;;;;;;;2.37;1.60;;;27.40;87.50;;;;;;4893462;29;20558;-71
2022/08/10 16:06:27;;;;;;;2.00;1.90;;;27.40;87.50;;;;;;4896167;29;20471;-71
2022/08/10 16:09:01;;;;;;;1.30;1.30;;;27.50;87.50;;;;;;4895609;29;20491;-71
2022/08/10 16:11:35;;;;;;;1.70;1.70;;;27.50;87.40;;;;;;4896028;29;20539;-70
2022/08/10 16:14:09;;;;;;;1.80;1.70;;;27.40;86.70;;;;;;4893685;29;20475;-70
2022/08/10 16:16:37;;;;;;;1.60;1.60;;;27.30;87.10;;;;;;4894476;29;20923;-71
2022/08/10 16:19:07;;;;;;;1.20;1.20;;;27.20;86.30;;;;;;4897045;29;20560;-70
2022/08/10 16:21:36;;;;;;;1.50;1.43;;;27.20;87.10;;;;;;4894475;29;20888;-70
2022/08/10 16:24:05;;;;;;;2.13;1.80;;;27.20;87.00;;;;;;4895924;29;20472;-70
2022/08/10 16:26:36;;;;;;;1.50;1.40;;;27.20;86.70;;;;;;4893703;29;20524;-69
2022/08/10 16:29:05;;;;;;;1.33;1.33;;;27.30;86.20;;;;;;4891707;29;20499;-69
2022/08/10 16:31:34;;;;;;;1.30;1.30;;;27.30;86.00;;;;;;4894850;29;20481;-70
2022/08/10 16:34:04;;;;;;;1.40;1.40;;;27.20;85.90;;;;;;4893551;29;20483;-69
2022/08/10 16:36:36;;;;;;;1.70;1.60;;;27.10;86.70;;;;;;4893790;29;20598;-70
2022/08/10 16:39:06;;;;;;;1.67;1.67;;;27.00;86.80;;;;;;4893865;29;20472;-71
2022/08/10 16:41:35;;;;;;;1.20;1.20;;;27.00;87.30;;;;;;4894492;29;20481;-71
2022/08/10 16:44:03;;;;;;;1.63;1.50;;;27.10;87.50;;;;;;4894415;29;20981;-70
2022/08/10 16:46:32;;;;;;;1.40;1.40;;;27.10;86.60;;;;;;4894463;29;20523;-70
2022/08/10 16:49:01;;;;;;;1.73;1.60;;;27.10;86.50;;;;;;4895930;29;20491;-70
2022/08/10 16:51:28;;;;;;;1.90;1.80;;;27.10;86.80;;;;;;4892912;29;20886;-70
2022/08/10 16:54:00;;;;;;;1.10;1.10;;;27.10;86.60;;;;;;4896270;29;20464;-70
2022/08/10 16:56:34;;;;;;;1.43;1.43;;;27.00;85.90;;;;;;4894172;29;21222;-70
2022/08/10 16:59:02;;;;;;;1.50;1.50;;;27.00;86.20;;;;;;4891487;29;20528;-69
2022/08/10 17:01:35;;;;;;;1.73;1.73;;;26.90;86.60;;;;;;4893104;29;20479;-72
2022/08/10 17:04:05;;;;;;;2.00;1.90;;;26.90;87.30;;;;;;4890231;29;20480;-68
2022/08/10 17:06:35;;;;;;;1.70;1.70;;;27.00;86.00;;;;;;4891551;29;20573;-71
2022/08/10 17:09:07;;;;;;;1.40;1.40;;;26.90;86.00;;;;;;4894100;29;20585;-70
2022/08/10 17:11:39;;;;;;;1.50;1.50;;;26.90;87.10;;;;;;4894846;29;20476;-71
2022/08/10 17:14:08;;;;;;;1.57;1.57;;;26.90;85.50;;;;;;4893357;29;20523;-70
2022/08/10 17:16:38;;;;;;;2.17;1.53;;;26.80;86.80;;;;;;4894727;29;20857;-70
2022/08/10 17:19:11;;;;;;;1.50;1.50;;;26.80;88.20;;;;;;4891718;29;20957;-69